createdAt,value
2022-09-26T00:01:41.134Z,7.36
2022-09-26T00:03:02.378Z,6.17
2022-09-26T00:05:37.383Z,5.62
2022-09-26T00:08:19.334Z,7.56
2022-09-26T00:09:40.410Z,5.02
2022-09-26T00:11:04.869Z,6.92
2022-09-26T00:12:26.043Z,5.83
2022-09-26T00:13:49.457Z,6.74
2022-09-26T00:16:32.062Z,5.51
2022-09-26T00:17:53.233Z,7.01
2022-09-26T00:19:15.003Z,10.00
2022-09-26T00:20:37.805Z,8.56
2022-09-26T00:21:59.361Z,7.64
2022-09-26T00:23:20.929Z,10.70
2022-09-26T00:24:42.049Z,9.69
2022-09-26T00:26:03.250Z,14.54
2022-09-26T00:27:24.293Z,12.42
2022-09-26T00:28:46.257Z,11.51
2022-09-26T00:30:08.682Z,10.16
2022-09-26T00:31:31.333Z,11.18
2022-09-26T00:32:52.676Z,8.38
2022-09-26T00:34:16.468Z,10.15
2022-09-26T00:35:37.903Z,10.14
2022-09-26T00:36:59.259Z,8.34
2022-09-26T00:38:20.619Z,6.91
2022-09-26T00:39:42.053Z,7.71
2022-09-26T00:41:03.427Z,6.94
2022-09-26T00:42:25.359Z,8.69
2022-09-26T00:45:00.309Z,9.14
2022-09-26T00:46:39.728Z,9.51
2022-09-26T00:48:03.646Z,9.64
2022-09-26T00:49:29.794Z,9.91
2022-09-26T00:50:51.404Z,9.07
2022-09-26T00:52:19.131Z,7.89
2022-09-26T00:53:43.212Z,7.90
2022-09-26T00:55:05.436Z,6.79
2022-09-26T00:56:29.086Z,5.53
2022-09-26T00:57:53.526Z,6.11
2022-09-26T00:59:23.899Z,5.78
2022-09-26T01:00:45.970Z,8.11
2022-09-26T01:02:07.572Z,5.29
2022-09-26T01:03:29.179Z,5.58
2022-09-26T01:04:50.618Z,5.43
2022-09-26T01:06:12.695Z,6.99
2022-09-26T01:07:33.660Z,5.66
2022-09-26T01:09:03.603Z,6.31
2022-09-26T01:10:24.968Z,6.83
2022-09-26T01:11:45.924Z,5.59
2022-09-26T01:13:06.855Z,8.07
2022-09-26T01:14:28.284Z,5.26
2022-09-26T01:15:49.759Z,6.34
2022-09-26T01:17:12.161Z,5.08
2022-09-26T01:18:33.533Z,5.57
2022-09-26T01:20:13.458Z,7.58
2022-09-26T01:21:59.885Z,7.48
2022-09-26T01:23:53.018Z,6.35
2022-09-26T01:25:33.842Z,6.36
2022-09-26T01:26:58.879Z,7.19
2022-09-26T01:28:46.309Z,7.32
2022-09-26T01:30:16.123Z,6.49
2022-09-26T01:31:49.679Z,7.15
2022-09-26T01:35:00.550Z,7.16
2022-09-26T01:36:33.976Z,6.23
2022-09-26T01:39:36.036Z,7.98
2022-09-26T01:41:19.275Z,6.46
2022-09-26T01:42:53.012Z,8.08
2022-09-26T01:44:33.093Z,6.55
2022-09-26T01:46:14.844Z,7.79
2022-09-26T01:47:48.954Z,6.87
2022-09-26T01:49:31.648Z,8.27
2022-09-26T01:51:01.589Z,6.22
2022-09-26T01:52:29.866Z,6.92
2022-09-26T02:07:45.039Z,7.36
2022-09-26T02:09:13.065Z,6.17
2022-09-26T02:11:48.449Z,6.44
2022-09-26T02:14:28.522Z,4.82
2022-09-26T02:15:51.837Z,6.68
2022-09-26T02:17:15.832Z,6.13
2022-09-26T02:18:40.120Z,6.89
2022-09-26T02:21:31.760Z,7.10
2022-09-26T02:22:53.222Z,6.99
2022-09-26T02:24:14.410Z,7.43
2022-09-26T02:25:36.934Z,6.31
2022-09-26T02:26:58.466Z,7.53
2022-09-26T02:28:19.977Z,6.62
2022-09-26T02:29:42.415Z,6.47
2022-09-26T02:31:04.324Z,5.71
2022-09-26T02:32:31.932Z,6.94
2022-09-26T02:33:53.402Z,6.58
2022-09-26T02:35:15.170Z,6.86
2022-09-26T02:36:36.863Z,6.73
2022-09-26T02:37:58.107Z,6.78
2022-09-26T02:39:19.135Z,5.92
2022-09-26T02:42:20.913Z,7.53
2022-09-26T02:44:08.657Z,6.62
2022-09-26T02:47:05.458Z,7.76
2022-09-26T02:48:53.661Z,6.57
2022-09-26T02:50:25.050Z,6.49
2022-09-26T02:52:06.999Z,8.84
2022-09-26T02:53:48.278Z,7.11
2022-09-26T02:55:27.289Z,6.81
2022-09-26T02:57:01.702Z,7.22
2022-09-26T02:58:35.874Z,7.33
2022-09-26T03:00:11.248Z,7.17
2022-09-26T03:01:38.037Z,6.78
2022-09-26T03:03:05.277Z,8.34
2022-09-26T03:05:44.883Z,7.21
2022-09-26T03:07:08.180Z,6.84
2022-09-26T03:08:31.508Z,7.49
2022-09-26T03:09:52.576Z,8.57
2022-09-26T03:11:17.110Z,7.32
2022-09-26T03:12:38.518Z,8.97
2022-09-26T03:13:59.730Z,9.23
2022-09-26T03:15:20.693Z,8.86
2022-09-26T03:16:43.139Z,8.57
2022-09-26T03:18:06.305Z,8.42
2022-09-26T03:19:34.042Z,8.09
2022-09-26T03:20:55.365Z,7.87
2022-09-26T03:22:16.588Z,8.67
2022-09-26T03:23:37.817Z,9.23
2022-09-26T03:24:59.193Z,8.78
2022-09-26T03:26:21.003Z,8.99
2022-09-26T03:27:42.382Z,9.98
2022-09-26T03:29:03.573Z,9.08
2022-09-26T03:30:25.026Z,9.85
2022-09-26T03:31:46.782Z,10.04
2022-09-26T03:33:08.029Z,9.78
2022-09-26T03:34:29.399Z,9.41
2022-09-26T03:35:52.812Z,10.58
2022-09-26T03:37:13.852Z,10.39
2022-09-26T03:38:34.885Z,10.12
2022-09-26T03:39:56.500Z,11.23
2022-09-26T03:41:17.596Z,10.79
2022-09-26T03:42:39.019Z,12.27
2022-09-26T03:44:00.530Z,9.63
2022-09-26T03:45:21.935Z,12.05
2022-09-26T03:46:43.488Z,10.91
2022-09-26T03:48:04.960Z,9.66
2022-09-26T03:49:26.470Z,8.92
2022-09-26T03:50:47.884Z,10.69
2022-09-26T03:52:10.199Z,9.11
2022-09-26T03:53:32.658Z,7.00
2022-09-26T03:54:53.602Z,7.92
2022-09-26T03:56:16.301Z,9.27
2022-09-26T03:57:37.259Z,6.88
2022-09-26T03:58:58.631Z,7.62
2022-09-26T04:00:19.873Z,7.42
2022-09-26T04:01:41.233Z,7.39
2022-09-26T04:03:02.710Z,11.06
2022-09-26T04:04:24.495Z,8.27
2022-09-26T04:05:46.233Z,7.19
2022-09-26T04:07:07.363Z,7.84
2022-09-26T04:08:28.548Z,7.41
2022-09-26T04:09:49.571Z,6.76
2022-09-26T04:11:12.998Z,7.31
2022-09-26T04:13:54.870Z,6.13
2022-09-26T04:15:16.272Z,5.79
2022-09-26T04:16:37.512Z,5.66
2022-09-26T04:17:59.002Z,6.10
2022-09-26T04:19:20.346Z,5.95
2022-09-26T04:20:42.782Z,6.12
2022-09-26T04:22:04.147Z,7.04
2022-09-26T04:23:29.044Z,8.22
2022-09-26T04:24:50.198Z,6.21
2022-09-26T04:26:16.473Z,8.20
2022-09-26T04:27:36.934Z,7.03
2022-09-26T04:28:58.034Z,5.13
2022-09-26T04:30:19.427Z,7.93
2022-09-26T04:31:40.488Z,9.81
2022-09-26T04:33:01.805Z,8.03
2022-09-26T04:34:27.025Z,7.17
2022-09-26T04:36:55.782Z,5.58
2022-09-26T04:38:17.122Z,6.80
2022-09-26T04:39:38.793Z,6.52
2022-09-26T04:41:06.439Z,6.69
2022-09-26T04:42:28.161Z,8.62
2022-09-26T04:43:49.575Z,11.00
2022-09-26T04:45:11.176Z,10.86
2022-09-26T04:46:32.224Z,9.19
2022-09-26T04:47:53.396Z,9.86
2022-09-26T04:49:15.050Z,10.20
2022-09-26T04:50:38.560Z,8.11
2022-09-26T04:52:00.031Z,7.89
2022-09-26T04:53:23.749Z,7.52
2022-09-26T04:54:44.911Z,7.51
2022-09-26T04:57:19.978Z,8.76
2022-09-26T04:58:42.020Z,6.79
2022-09-26T05:00:07.699Z,8.79
2022-09-26T05:01:30.069Z,8.49
2022-09-26T05:02:51.395Z,10.39
2022-09-26T05:04:12.533Z,10.87
2022-09-26T05:05:35.985Z,9.82
2022-09-26T05:06:59.666Z,9.88
2022-09-26T05:08:22.402Z,9.24
2022-09-26T05:09:45.826Z,11.00
2022-09-26T05:11:07.567Z,10.42
2022-09-26T05:12:28.772Z,10.80
2022-09-26T05:13:53.366Z,9.52
2022-09-26T05:15:14.414Z,11.50
2022-09-26T05:16:36.234Z,10.20
2022-09-26T05:19:09.309Z,10.76
2022-09-26T05:20:31.850Z,9.72
2022-09-26T05:21:53.451Z,8.97
2022-09-26T05:23:17.259Z,9.48
2022-09-26T05:24:38.753Z,7.81
2022-09-26T05:26:02.073Z,8.06
2022-09-26T05:28:45.777Z,13.07
2022-09-26T05:30:08.861Z,8.36
2022-09-26T05:31:31.272Z,8.13
2022-09-26T05:32:53.412Z,10.91
2022-09-26T05:34:19.819Z,8.83
2022-09-26T05:35:40.347Z,8.56
2022-09-26T05:37:01.430Z,7.67
2022-09-26T05:38:23.429Z,8.92
2022-09-26T05:39:45.226Z,9.06
2022-09-26T05:41:07.537Z,7.34
2022-09-26T05:42:29.045Z,7.58
2022-09-26T05:43:51.138Z,6.52
2022-09-26T05:45:14.662Z,11.17
2022-09-26T05:46:36.844Z,9.45
2022-09-26T05:47:58.485Z,8.86
2022-09-26T05:49:19.910Z,9.04
2022-09-26T05:50:43.776Z,10.89
2022-09-26T05:52:05.928Z,12.48
2022-09-26T05:53:28.469Z,9.41
2022-09-26T05:54:52.278Z,9.75
2022-09-26T05:56:19.007Z,12.33
2022-09-26T05:57:39.719Z,11.94
2022-09-26T05:59:01.979Z,12.27
2022-09-26T06:00:24.825Z,12.08
2022-09-26T06:01:45.849Z,11.52
2022-09-26T06:03:07.817Z,13.81
2022-09-26T06:04:29.415Z,13.77
2022-09-26T06:05:50.695Z,13.68
2022-09-26T06:07:11.775Z,13.94
2022-09-26T06:08:33.867Z,20.81
2022-09-26T06:09:55.097Z,47.79
2022-09-26T06:11:18.168Z,55.31
2022-09-26T06:12:41.449Z,77.17
2022-09-26T06:14:04.584Z,62.21
2022-09-26T06:15:25.970Z,43.93
2022-09-26T06:16:47.160Z,40.49
2022-09-26T06:18:10.105Z,30.51
2022-09-26T06:19:31.177Z,39.22
2022-09-26T06:20:52.690Z,25.69
2022-09-26T06:22:14.011Z,17.13
2022-09-26T06:23:35.278Z,14.36
2022-09-26T06:24:56.823Z,14.66
2022-09-26T06:26:21.656Z,13.49
2022-09-26T06:27:44.945Z,13.01
2022-09-26T06:29:06.712Z,26.56
2022-09-26T06:30:28.297Z,29.70
2022-09-26T06:31:49.780Z,24.29
2022-09-26T06:34:23.848Z,9.69
2022-09-26T06:35:46.658Z,23.38
2022-09-26T06:37:07.864Z,23.17
2022-09-26T06:38:29.861Z,13.33
2022-09-26T06:39:53.641Z,13.48
2022-09-26T06:41:15.866Z,12.23
2022-09-26T06:42:37.867Z,15.60
2022-09-26T06:43:59.129Z,13.58
2022-09-26T06:45:21.260Z,12.91
2022-09-26T06:46:44.091Z,12.18
2022-09-26T06:48:05.783Z,12.93
2022-09-26T06:49:27.661Z,13.46
2022-09-26T06:50:52.973Z,11.91
2022-09-26T06:52:14.457Z,14.19
2022-09-26T06:53:35.714Z,13.78
2022-09-26T06:54:56.960Z,11.91
2022-09-26T06:56:18.789Z,9.96
2022-09-26T06:57:42.954Z,10.88
2022-09-26T06:59:04.527Z,12.73
2022-09-26T07:00:26.612Z,11.63
2022-09-26T07:01:51.911Z,16.11
2022-09-26T07:03:13.023Z,16.64
2022-09-26T07:04:34.332Z,13.00
2022-09-26T07:05:56.368Z,13.96
2022-09-26T07:07:18.305Z,14.49
2022-09-26T07:09:01.029Z,15.45
2022-09-26T07:10:03.339Z,15.90
2022-09-26T07:11:56.663Z,15.83
2022-09-26T07:12:48.805Z,17.29
2022-09-26T07:15:23.997Z,20.44
2022-09-26T07:16:47.243Z,31.46
2022-09-26T07:18:09.535Z,16.49
2022-09-26T07:19:32.070Z,17.51
2022-09-26T07:20:56.761Z,16.66
2022-09-26T07:22:17.363Z,21.58
2022-09-26T07:23:39.396Z,15.64
2022-09-26T07:25:00.847Z,14.48
2022-09-26T07:26:22.328Z,12.89
2022-09-26T07:29:05.239Z,14.55
2022-09-26T07:30:26.592Z,12.66
2022-09-26T07:31:48.303Z,11.70
2022-09-26T07:33:09.657Z,10.71
2022-09-26T07:34:31.164Z,13.62
2022-09-26T07:35:54.555Z,13.91
2022-09-26T07:37:17.359Z,14.42
2022-09-26T07:38:38.941Z,15.49
2022-09-26T07:40:02.167Z,42.42
2022-09-26T07:41:27.252Z,36.20
2022-09-26T07:45:08.717Z,19.39
2022-09-26T07:45:29.872Z,20.79
2022-09-26T07:46:53.321Z,19.15
2022-09-26T07:49:36.795Z,33.89
2022-09-26T07:51:03.576Z,20.38
2022-09-26T07:52:28.445Z,15.17
2022-09-26T07:53:51.371Z,17.96
2022-09-26T07:55:18.904Z,19.54
2022-09-26T07:56:40.018Z,19.19
2022-09-26T07:58:02.381Z,16.82
2022-09-26T07:59:23.675Z,15.21
2022-09-26T08:00:45.372Z,15.42
2022-09-26T08:04:03.017Z,21.81
2022-09-26T08:05:24.306Z,13.71
2022-09-26T08:06:46.817Z,27.89
2022-09-26T08:08:08.410Z,16.71
2022-09-26T08:09:30.308Z,19.24
2022-09-26T08:12:02.539Z,35.19
2022-09-26T08:13:24.970Z,44.70
2022-09-26T08:14:47.294Z,30.80
2022-09-26T08:16:08.925Z,19.67
2022-09-26T08:17:34.148Z,14.28
2022-09-26T08:18:55.740Z,15.34
2022-09-26T08:20:21.197Z,16.00
2022-09-26T08:21:49.519Z,12.31
2022-09-26T08:23:11.012Z,11.22
2022-09-26T08:24:38.797Z,9.81
2022-09-26T08:26:09.289Z,13.86
2022-09-26T08:27:36.535Z,13.08
2022-09-26T08:28:59.631Z,13.65
2022-09-26T08:30:21.533Z,10.79
2022-09-26T08:31:44.683Z,14.12
2022-09-26T08:33:10.159Z,11.77
2022-09-26T08:34:32.743Z,12.47
2022-09-26T08:35:54.625Z,12.70
2022-09-26T08:37:18.727Z,13.87
2022-09-26T08:38:40.647Z,17.56
2022-09-26T08:40:03.489Z,14.21
2022-09-26T08:41:31.360Z,14.41
2022-09-26T08:43:01.988Z,12.28
2022-09-26T08:44:33.162Z,16.28
2022-09-26T08:46:14.765Z,15.39
2022-09-26T08:47:46.372Z,8.88
2022-09-26T08:49:32.456Z,15.71
2022-09-26T08:50:58.520Z,9.88
2022-09-26T08:52:45.494Z,14.89
2022-09-26T08:55:33.720Z,22.71
2022-09-26T08:56:58.269Z,12.38
2022-09-26T08:58:28.549Z,11.44
2022-09-26T08:59:49.918Z,14.84
2022-09-26T09:01:16.966Z,12.72
2022-09-26T09:02:42.669Z,17.11
2022-09-26T09:04:17.143Z,9.40
2022-09-26T09:05:46.140Z,15.45
2022-09-26T09:08:37.975Z,12.59
2022-09-26T09:11:23.930Z,10.38
2022-09-26T09:13:52.877Z,9.76
2022-09-26T09:15:41.858Z,9.08
2022-09-26T09:17:29.695Z,13.74
2022-09-26T09:19:11.299Z,10.38
2022-09-26T09:20:56.583Z,11.70
2022-09-26T09:22:39.791Z,10.47
2022-09-26T09:24:04.992Z,10.65
2022-09-26T09:25:49.066Z,7.46
2022-09-26T09:27:53.412Z,10.14
2022-09-26T09:29:19.007Z,12.08
2022-09-26T09:30:49.234Z,12.06
2022-09-26T09:32:14.173Z,9.85
2022-09-26T09:33:44.323Z,8.18
2022-09-26T09:36:25.305Z,8.57
2022-09-26T09:37:51.430Z,9.78
2022-09-26T09:39:19.817Z,9.33
2022-09-26T09:40:44.587Z,9.19
2022-09-26T09:42:13.562Z,8.19
2022-09-26T09:44:02.590Z,8.66
2022-09-26T09:45:39.913Z,9.74
2022-09-26T09:47:01.546Z,9.81
2022-09-26T09:48:25.287Z,10.94
2022-09-26T09:49:48.115Z,9.55
2022-09-26T09:51:18.557Z,10.03
2022-09-26T09:55:05.367Z,7.25
2022-09-26T09:56:47.246Z,9.86
2022-09-26T09:58:30.927Z,6.38
2022-09-26T09:59:59.013Z,7.41
2022-09-26T10:03:25.840Z,6.47
2022-09-26T10:06:10.478Z,6.49
2022-09-26T10:07:30.363Z,9.36
2022-09-26T10:08:54.317Z,7.31
2022-09-26T10:10:20.471Z,9.88
2022-09-26T10:11:42.257Z,7.23
2022-09-26T10:13:03.719Z,10.22
2022-09-26T10:15:55.879Z,10.14
2022-09-26T10:17:18.044Z,4.96
2022-09-26T10:20:28.645Z,7.30
2022-09-26T10:21:50.306Z,6.30
2022-09-26T10:23:15.420Z,9.24
2022-09-26T10:24:38.277Z,8.24
2022-09-26T10:27:34.202Z,7.50
2022-09-26T10:28:55.842Z,7.03
2022-09-26T10:31:45.037Z,6.13
2022-09-26T10:33:10.276Z,6.29
2022-09-26T10:34:33.257Z,7.86
2022-09-26T10:37:32.336Z,5.07
2022-09-26T10:41:42.588Z,8.82
2022-09-26T10:43:22.833Z,7.54
2022-09-26T10:44:44.547Z,7.91
2022-09-26T10:46:15.791Z,8.62
2022-09-26T10:47:37.266Z,8.59
2022-09-26T10:48:59.710Z,6.39
2022-09-26T10:50:22.767Z,6.48
2022-09-26T10:51:46.447Z,5.89
2022-09-26T10:53:08.854Z,5.27
2022-09-26T10:55:53.081Z,8.64
2022-09-26T10:57:19.435Z,7.44
2022-09-26T10:58:41.905Z,9.01
2022-09-26T11:00:04.790Z,11.59
2022-09-26T11:01:29.312Z,9.98
2022-09-26T11:02:51.084Z,7.89
2022-09-26T11:04:23.392Z,8.12
2022-09-26T11:07:13.536Z,7.76
2022-09-26T11:09:52.511Z,13.13
2022-09-26T11:11:14.026Z,5.97
2022-09-26T11:12:37.335Z,9.86
2022-09-26T11:14:03.287Z,8.55
2022-09-26T11:15:25.707Z,15.83
2022-09-26T11:16:52.022Z,6.61
2022-09-26T11:18:17.371Z,10.37
2022-09-26T11:19:45.383Z,8.41
2022-09-26T11:22:43.648Z,8.04
2022-09-26T11:24:15.362Z,6.52
2022-09-26T11:25:52.249Z,7.06
2022-09-26T11:27:25.558Z,8.21
2022-09-26T11:30:13.923Z,8.52
2022-09-26T11:31:38.597Z,6.81
2022-09-26T11:33:02.399Z,7.73
2022-09-26T11:34:28.568Z,8.63
2022-09-26T11:35:56.027Z,11.34
2022-09-26T11:37:32.879Z,6.72
2022-09-26T11:38:56.220Z,9.02
2022-09-26T11:40:42.308Z,7.15
2022-09-26T11:42:19.875Z,7.51
2022-09-26T11:44:00.947Z,8.85
2022-09-26T11:45:52.015Z,8.73
2022-09-26T11:47:35.205Z,7.34
2022-09-26T11:49:00.173Z,6.68
2022-09-26T11:50:47.080Z,6.47
2022-09-26T11:52:32.399Z,7.40
2022-09-26T11:55:39.713Z,8.22
2022-09-26T11:57:32.328Z,5.17
2022-09-26T11:58:59.883Z,6.70
2022-09-26T12:00:23.173Z,6.08
2022-09-26T12:01:53.898Z,5.72
2022-09-26T12:05:04.134Z,5.15
2022-09-26T12:06:42.759Z,5.91
2022-09-26T12:08:26.101Z,4.97
2022-09-26T12:11:18.954Z,5.34
2022-09-26T12:12:47.100Z,4.60
2022-09-26T12:14:28.641Z,4.50
2022-09-26T12:15:59.630Z,3.88
2022-09-26T12:17:40.221Z,5.64
2022-09-26T12:20:28.556Z,6.58
2022-09-26T12:22:03.878Z,5.32
2022-09-26T12:23:47.186Z,5.97
2022-09-26T12:25:41.364Z,5.83
2022-09-26T12:27:18.183Z,4.84
2022-09-26T12:30:28.389Z,6.45
2022-09-26T12:33:32.692Z,6.84
2022-09-26T12:35:02.196Z,7.13
2022-09-26T12:38:21.522Z,4.83
2022-09-26T12:51:50.147Z,14.69
2022-09-26T12:53:15.750Z,13.82
2022-09-26T12:56:08.193Z,7.38
2022-09-26T12:59:19.613Z,7.88
2022-09-26T13:02:27.818Z,5.26
2022-09-26T13:04:06.179Z,5.99
2022-09-26T13:05:47.414Z,7.16
2022-09-26T13:07:20.292Z,5.91
2022-09-26T13:09:05.568Z,6.24
2022-09-26T13:12:12.492Z,8.77
2022-09-26T13:13:47.818Z,7.32
2022-09-26T13:27:13.875Z,7.62
2022-09-26T13:30:08.039Z,9.36
2022-09-26T13:33:08.869Z,5.52
2022-09-26T13:34:36.430Z,8.01
2022-09-26T13:35:58.201Z,5.56
2022-09-26T13:37:27.315Z,7.32
2022-09-26T13:40:20.047Z,6.29
2022-09-26T13:42:01.216Z,7.01
2022-09-26T13:43:28.873Z,6.02
2022-09-26T13:45:21.783Z,6.82
2022-09-26T13:47:08.182Z,7.34
2022-09-26T13:50:23.593Z,5.27
2022-09-26T13:53:19.880Z,8.79
2022-09-26T13:56:37.079Z,7.82
2022-09-26T13:58:03.944Z,8.20
2022-09-26T13:59:31.678Z,7.81
2022-09-26T14:00:56.695Z,6.26
2022-09-26T14:02:26.123Z,8.08
2022-09-26T14:03:49.081Z,8.36
2022-09-26T14:05:19.695Z,6.94
2022-09-26T14:07:01.872Z,7.28
2022-09-26T14:08:31.773Z,6.87
2022-09-26T14:10:21.989Z,8.62
2022-09-26T14:14:41.422Z,12.71
2022-09-26T14:16:06.797Z,8.73
2022-09-26T14:19:10.059Z,21.38
2022-09-26T14:20:36.796Z,9.51
2022-09-26T14:22:04.049Z,12.81
2022-09-26T14:23:42.818Z,9.91
2022-09-26T14:25:04.624Z,9.82
2022-09-26T14:26:27.426Z,8.39
2022-09-26T14:27:48.463Z,9.48
2022-09-26T14:29:24.629Z,10.43
2022-09-26T14:31:13.311Z,12.14
2022-09-26T14:32:37.508Z,15.30
2022-09-26T14:35:36.495Z,10.83
2022-09-26T14:37:01.299Z,10.96
2022-09-26T14:38:23.700Z,9.46
2022-09-26T14:39:47.203Z,9.54
2022-09-26T14:41:18.998Z,8.87
2022-09-26T14:42:47.872Z,9.33
2022-09-26T14:44:13.263Z,10.13
2022-09-26T14:46:52.074Z,8.88
2022-09-26T14:49:43.026Z,15.50
2022-09-26T14:51:11.164Z,10.51
2022-09-26T14:52:32.716Z,11.47
2022-09-26T14:54:08.833Z,13.32
2022-09-26T14:56:47.447Z,13.19
2022-09-26T14:58:15.455Z,10.07
2022-09-26T14:59:38.867Z,12.11
2022-09-26T15:01:02.915Z,7.84
2022-09-26T15:02:32.782Z,9.33
2022-09-26T15:04:06.762Z,6.44
2022-09-26T15:05:28.376Z,6.30
2022-09-26T15:08:04.531Z,5.58
2022-09-26T15:09:41.778Z,6.67
2022-09-26T15:11:03.262Z,5.99
2022-09-26T15:12:34.025Z,6.47
2022-09-26T15:13:55.434Z,6.19
2022-09-26T15:16:53.156Z,10.74
2022-09-26T15:19:35.754Z,6.79
2022-09-26T15:21:04.221Z,9.44
2022-09-26T15:22:24.746Z,11.76
2022-09-26T15:25:12.352Z,8.42
2022-09-26T15:27:57.446Z,18.29
2022-09-26T15:29:18.788Z,11.36
2022-09-26T15:30:41.603Z,8.84
2022-09-26T15:32:02.737Z,10.33
2022-09-26T15:33:24.249Z,12.06
2022-09-26T15:34:45.619Z,13.47
2022-09-26T15:36:07.945Z,16.38
2022-09-26T15:37:33.557Z,10.61
2022-09-26T15:38:56.788Z,10.04
2022-09-26T15:40:24.356Z,10.02
2022-09-26T15:41:46.836Z,8.47
2022-09-26T15:43:12.816Z,9.16
2022-09-26T15:45:47.806Z,6.38
2022-09-26T15:47:32.518Z,9.26
2022-09-26T15:48:54.005Z,7.92
2022-09-26T15:50:31.677Z,9.70
2022-09-26T15:51:54.237Z,10.00
2022-09-26T15:53:23.616Z,9.56
2022-09-26T15:54:44.937Z,9.43
2022-09-26T15:56:12.483Z,9.68
2022-09-26T15:57:34.260Z,11.84
2022-09-26T16:00:32.789Z,11.01
2022-09-26T16:01:54.424Z,11.86
2022-09-26T16:03:25.087Z,11.09
2022-09-26T16:04:46.585Z,8.79
2022-09-26T16:06:36.797Z,8.26
2022-09-26T16:07:59.295Z,8.59
2022-09-26T16:09:30.158Z,7.38
2022-09-26T16:12:18.755Z,10.61
2022-09-26T16:13:42.311Z,7.84
2022-09-26T16:15:05.851Z,6.57
2022-09-26T16:16:29.637Z,7.29
2022-09-26T16:17:52.528Z,8.89
2022-09-26T16:19:17.764Z,6.96
2022-09-26T16:20:39.251Z,8.01
2022-09-26T16:23:33.281Z,7.52
2022-09-26T16:26:29.386Z,9.55
2022-09-26T16:27:58.866Z,7.32
2022-09-26T16:29:30.506Z,7.26
2022-09-26T16:31:00.526Z,7.47
2022-09-26T16:32:23.425Z,7.97
2022-09-26T16:33:48.391Z,7.17
2022-09-26T16:35:12.260Z,7.91
2022-09-26T16:36:33.998Z,6.12
2022-09-26T16:37:59.373Z,7.31
2022-09-26T16:39:25.961Z,9.09
2022-09-26T16:40:51.287Z,8.51
2022-09-26T16:42:14.437Z,7.79
2022-09-26T16:43:36.094Z,7.16
2022-09-26T16:44:57.408Z,7.62
2022-09-26T16:46:23.723Z,7.45
2022-09-26T16:47:45.132Z,7.12
2022-09-26T16:49:26.136Z,7.62
2022-09-26T16:50:47.577Z,6.93
2022-09-26T16:52:12.032Z,6.82
2022-09-26T16:53:33.520Z,7.03
2022-09-26T16:54:59.650Z,7.01
2022-09-26T16:56:22.551Z,7.36
2022-09-26T16:57:58.273Z,6.59
2022-09-26T16:59:25.121Z,8.56
2022-09-26T17:00:51.348Z,5.81
2022-09-26T17:02:10.050Z,5.90
2022-09-26T17:04:44.147Z,5.85
2022-09-26T17:06:06.145Z,6.32
2022-09-26T17:07:27.508Z,7.22
2022-09-26T17:08:48.666Z,9.02
2022-09-26T17:10:10.914Z,6.94
2022-09-26T17:12:48.103Z,7.32
2022-09-26T17:14:12.013Z,7.65
2022-09-26T17:15:35.202Z,8.46
2022-09-26T17:16:57.017Z,6.92
2022-09-26T17:18:20.104Z,9.06
2022-09-26T17:19:41.980Z,10.08
2022-09-26T17:21:03.563Z,10.39
2022-09-26T17:22:25.183Z,9.73
2022-09-26T17:23:46.179Z,10.01
2022-09-26T17:25:10.703Z,11.87
2022-09-26T17:26:31.867Z,9.17
2022-09-26T17:27:53.953Z,8.29
2022-09-26T17:29:17.790Z,9.12
2022-09-26T17:30:39.256Z,11.74
2022-09-26T17:32:03.271Z,7.40
2022-09-26T17:33:24.439Z,9.50
2022-09-26T17:34:45.461Z,9.25
2022-09-26T17:36:08.596Z,6.98
2022-09-26T17:37:29.772Z,6.96
2022-09-26T17:38:51.103Z,6.25
2022-09-26T17:41:27.312Z,7.31
2022-09-26T17:42:52.865Z,6.03
2022-09-26T17:44:14.111Z,7.36
2022-09-26T17:45:38.787Z,9.99
2022-09-26T17:47:00.116Z,8.50
2022-09-26T17:48:28.087Z,7.32
2022-09-26T17:49:50.299Z,6.67
2022-09-26T17:51:11.814Z,6.73
2022-09-26T17:52:33.033Z,10.21
2022-09-26T17:53:54.453Z,7.99
2022-09-26T17:55:15.936Z,8.97
2022-09-26T17:56:38.476Z,7.04
2022-09-26T17:57:59.437Z,6.97
2022-09-26T17:59:22.231Z,8.13
2022-09-26T18:00:43.339Z,7.11
2022-09-26T18:03:26.661Z,7.69
2022-09-26T18:04:47.834Z,7.96
2022-09-26T18:06:09.727Z,7.28
2022-09-26T18:07:39.316Z,7.54
2022-09-26T18:09:01.156Z,7.78
2022-09-26T18:11:37.691Z,6.36
2022-09-26T18:13:12.751Z,7.09
2022-09-26T18:14:32.340Z,6.53
2022-09-26T18:15:54.358Z,7.19
2022-09-26T18:17:15.779Z,5.88
2022-09-26T18:18:37.215Z,7.23
2022-09-26T18:19:59.070Z,5.61
2022-09-26T18:21:23.379Z,8.10
2022-09-26T18:23:58.121Z,8.51
2022-09-26T18:25:21.161Z,6.26
2022-09-26T18:26:44.830Z,7.75
2022-09-26T18:28:07.062Z,9.21
2022-09-26T18:30:42.613Z,7.96
2022-09-26T18:32:05.581Z,9.08
2022-09-26T18:33:27.092Z,8.81
2022-09-26T18:34:48.545Z,10.39
2022-09-26T18:36:10.145Z,10.62
2022-09-26T18:37:31.702Z,7.14
2022-09-26T18:38:53.057Z,9.03
2022-09-26T18:40:16.630Z,6.57
2022-09-26T18:41:38.630Z,6.96
2022-09-26T18:43:00.014Z,8.96
2022-09-26T18:44:21.428Z,7.89
2022-09-26T18:45:42.932Z,7.09
2022-09-26T18:47:07.613Z,7.48
2022-09-26T18:48:29.752Z,7.10
2022-09-26T18:49:50.931Z,8.29
2022-09-26T18:51:12.411Z,9.80
2022-09-26T18:52:33.833Z,7.59
2022-09-26T18:53:55.516Z,8.83
2022-09-26T18:56:30.893Z,6.38
2022-09-26T18:57:52.025Z,8.28
2022-09-26T18:59:13.613Z,7.66
2022-09-26T19:00:35.892Z,7.28
2022-09-26T19:01:57.399Z,7.93
2022-09-26T19:03:18.809Z,9.00
2022-09-26T19:04:40.343Z,8.65
2022-09-26T19:07:21.461Z,7.06
2022-09-26T19:08:47.783Z,7.34
2022-09-26T19:10:15.240Z,8.11
2022-09-26T19:11:37.180Z,7.58
2022-09-26T19:12:58.906Z,8.31
2022-09-26T19:14:22.640Z,7.01
2022-09-26T19:15:43.726Z,7.73
2022-09-26T19:17:05.145Z,7.96
2022-09-26T19:18:26.869Z,9.59
2022-09-26T19:19:48.042Z,8.78
2022-09-26T19:21:16.151Z,9.07
2022-09-26T19:22:37.215Z,7.84
2022-09-26T19:24:00.510Z,11.88
2022-09-26T19:25:21.920Z,8.71
2022-09-26T19:26:43.376Z,9.14
2022-09-26T19:28:05.755Z,8.59
2022-09-26T19:29:36.711Z,14.05
2022-09-26T19:30:58.368Z,8.96
2022-09-26T19:33:37.365Z,8.90
2022-09-26T19:35:01.832Z,8.58
2022-09-26T19:36:23.323Z,9.37
2022-09-26T19:37:45.853Z,9.37
2022-09-26T19:39:13.428Z,8.18
2022-09-26T19:40:35.772Z,9.11
2022-09-26T19:41:56.910Z,8.81
2022-09-26T19:43:18.817Z,8.17
2022-09-26T19:44:40.211Z,8.42
2022-09-26T19:46:01.482Z,7.76
2022-09-26T19:47:22.894Z,8.91
2022-09-26T19:48:44.475Z,8.23
2022-09-26T19:51:22.233Z,9.52
2022-09-26T19:52:43.901Z,8.12
2022-09-26T19:54:06.536Z,9.77
2022-09-26T19:55:29.408Z,7.49
2022-09-26T19:56:51.000Z,8.02
2022-09-26T19:59:30.435Z,9.77
2022-09-26T20:00:55.835Z,7.99
2022-09-26T20:03:33.608Z,7.69
2022-09-26T20:04:54.730Z,9.37
2022-09-26T20:06:21.101Z,9.34
2022-09-26T20:07:42.172Z,8.53
2022-09-26T20:09:05.431Z,8.89
2022-09-26T20:10:27.196Z,8.13
2022-09-26T20:11:48.308Z,9.06
2022-09-26T20:13:10.004Z,7.69
2022-09-26T20:14:31.325Z,7.25
2022-09-26T20:15:52.569Z,7.64
2022-09-26T20:17:24.678Z,8.62
2022-09-26T20:18:46.532Z,8.26
2022-09-26T20:21:26.825Z,8.58
2022-09-26T20:22:49.326Z,10.22
2022-09-26T20:24:12.960Z,9.93
2022-09-26T20:25:39.195Z,8.35
2022-09-26T20:27:01.638Z,9.51
2022-09-26T20:28:22.875Z,7.79
2022-09-26T20:29:44.759Z,8.24
2022-09-26T20:31:18.739Z,6.88
2022-09-26T20:32:39.928Z,7.73
2022-09-26T20:34:01.186Z,7.88
2022-09-26T20:35:22.629Z,8.34
2022-09-26T20:36:46.103Z,7.31
2022-09-26T20:38:26.709Z,6.90
2022-09-26T20:39:48.047Z,8.13
2022-09-26T20:41:27.328Z,10.51
2022-09-26T20:42:51.143Z,7.92
2022-09-26T20:44:18.003Z,7.77
2022-09-26T20:45:40.573Z,10.90
2022-09-26T20:47:02.114Z,11.08
2022-09-26T20:48:24.377Z,10.46
2022-09-26T20:49:51.555Z,9.41
2022-09-26T20:51:20.125Z,9.67
2022-09-26T20:52:41.524Z,8.81
2022-09-26T20:54:03.407Z,9.02
2022-09-26T20:55:25.211Z,8.64
2022-09-26T20:56:46.901Z,8.77
2022-09-26T20:58:08.186Z,10.56
2022-09-26T20:59:29.486Z,8.98
2022-09-26T21:00:50.963Z,8.56
2022-09-26T21:03:41.332Z,8.12
2022-09-26T21:05:00.783Z,9.42
2022-09-26T21:06:25.777Z,8.27
2022-09-26T21:07:46.883Z,8.91
2022-09-26T21:10:29.528Z,9.88
2022-09-26T21:11:50.808Z,9.70
2022-09-26T21:13:12.376Z,9.12
2022-09-26T21:14:33.936Z,8.69
2022-09-26T21:15:55.540Z,8.46
2022-09-26T21:17:26.172Z,10.17
2022-09-26T21:18:49.084Z,9.49
2022-09-26T21:20:20.335Z,10.36
2022-09-26T21:21:41.502Z,9.69
2022-09-26T21:23:03.142Z,8.23
2022-09-26T21:24:31.368Z,9.46
2022-09-26T21:25:52.489Z,10.18
2022-09-26T21:27:13.565Z,8.69
2022-09-26T21:28:35.088Z,8.89
2022-09-26T21:29:56.666Z,8.33
2022-09-26T21:31:27.879Z,9.85
2022-09-26T21:34:01.672Z,9.27
2022-09-26T21:35:26.176Z,10.87
2022-09-26T21:36:47.588Z,8.19
2022-09-26T21:38:09.069Z,9.66